sensor_id;sensor_type;location;lat;lon;timestamp;temperature;humidity
31677;DHT22;18385;51.572;6.578;2023-11-21T00:01:01;12.20;70.20
31677;DHT22;18385;51.572;6.578;2023-11-21T00:03:30;12.20;70.40
31677;DHT22;18385;51.572;6.578;2023-11-21T00:05:55;12.30;70.40
31677;DHT22;18385;51.572;6.578;2023-11-21T00:08:21;12.30;70.50
31677;DHT22;18385;51.572;6.578;2023-11-21T00:10:47;12.30;70.50
31677;DHT22;18385;51.572;6.578;2023-11-21T00:13:14;12.30;70.40
31677;DHT22;18385;51.572;6.578;2023-11-21T00:15:39;12.30;70.30
31677;DHT22;18385;51.572;6.578;2023-11-21T00:18:06;12.40;70.40
31677;DHT22;18385;51.572;6.578;2023-11-21T00:20:31;12.40;70.30
31677;DHT22;18385;51.572;6.578;2023-11-21T00:22:57;12.40;70.20
31677;DHT22;18385;51.572;6.578;2023-11-21T00:25:23;12.50;70.10
31677;DHT22;18385;51.572;6.578;2023-11-21T00:27:50;12.50;70.00
31677;DHT22;18385;51.572;6.578;2023-11-21T00:30:15;12.50;70.00
31677;DHT22;18385;51.572;6.578;2023-11-21T00:32:41;12.60;70.10
31677;DHT22;18385;51.572;6.578;2023-11-21T00:35:07;12.60;70.00
31677;DHT22;18385;51.572;6.578;2023-11-21T00:37:33;12.60;70.00
31677;DHT22;18385;51.572;6.578;2023-11-21T00:39:58;12.60;69.90
31677;DHT22;18385;51.572;6.578;2023-11-21T00:42:24;12.60;70.00
31677;DHT22;18385;51.572;6.578;2023-11-21T00:44:50;12.50;70.00
31677;DHT22;18385;51.572;6.578;2023-11-21T00:47:16;12.50;70.00
31677;DHT22;18385;51.572;6.578;2023-11-21T00:49:42;12.50;70.10
31677;DHT22;18385;51.572;6.578;2023-11-21T00:52:08;12.50;70.20
31677;DHT22;18385;51.572;6.578;2023-11-21T00:54:34;12.50;70.00
31677;DHT22;18385;51.572;6.578;2023-11-21T00:56:59;12.50;70.10
31677;DHT22;18385;51.572;6.578;2023-11-21T00:59:25;12.50;70.20
31677;DHT22;18385;51.572;6.578;2023-11-21T01:01:51;12.50;70.20
31677;DHT22;18385;51.572;6.578;2023-11-21T01:04:16;12.60;70.40
31677;DHT22;18385;51.572;6.578;2023-11-21T01:06:42;12.60;70.30
31677;DHT22;18385;51.572;6.578;2023-11-21T01:09:08;12.60;70.30
31677;DHT22;18385;51.572;6.578;2023-11-21T01:11:35;12.60;70.30
31677;DHT22;18385;51.572;6.578;2023-11-21T01:14:03;12.70;70.20
31677;DHT22;18385;51.572;6.578;2023-11-21T01:16:30;12.70;70.10
31677;DHT22;18385;51.572;6.578;2023-11-21T01:18:58;12.70;70.10
31677;DHT22;18385;51.572;6.578;2023-11-21T01:21:25;12.70;70.00
31677;DHT22;18385;51.572;6.578;2023-11-21T01:23:50;12.70;70.00
31677;DHT22;18385;51.572;6.578;2023-11-21T01:26:16;12.70;69.90
31677;DHT22;18385;51.572;6.578;2023-11-21T01:28:42;12.70;69.80
31677;DHT22;18385;51.572;6.578;2023-11-21T01:31:07;12.70;69.80
31677;DHT22;18385;51.572;6.578;2023-11-21T01:33:33;12.70;70.00
31677;DHT22;18385;51.572;6.578;2023-11-21T01:35:58;12.60;70.00
31677;DHT22;18385;51.572;6.578;2023-11-21T01:38:25;12.60;70.10
31677;DHT22;18385;51.572;6.578;2023-11-21T01:40:51;12.50;70.00
31677;DHT22;18385;51.572;6.578;2023-11-21T01:43:17;12.50;70.20
31677;DHT22;18385;51.572;6.578;2023-11-21T01:45:43;12.50;70.40
31677;DHT22;18385;51.572;6.578;2023-11-21T01:48:10;12.50;70.30
31677;DHT22;18385;51.572;6.578;2023-11-21T01:50:38;12.50;71.00
31677;DHT22;18385;51.572;6.578;2023-11-21T01:53:03;12.50;70.20
31677;DHT22;18385;51.572;6.578;2023-11-21T01:55:30;12.50;70.60
31677;DHT22;18385;51.572;6.578;2023-11-21T01:57:56;12.60;70.40
31677;DHT22;18385;51.572;6.578;2023-11-21T02:00:25;12.60;70.40
31677;DHT22;18385;51.572;6.578;2023-11-21T02:02:55;12.70;70.40
31677;DHT22;18385;51.572;6.578;2023-11-21T02:05:22;12.60;70.20
31677;DHT22;18385;51.572;6.578;2023-11-21T02:07:47;12.60;70.20
31677;DHT22;18385;51.572;6.578;2023-11-21T02:10:15;12.60;70.30
31677;DHT22;18385;51.572;6.578;2023-11-21T02:12:42;12.60;70.40
31677;DHT22;18385;51.572;6.578;2023-11-21T02:15:09;12.70;70.40
31677;DHT22;18385;51.572;6.578;2023-11-21T02:17:42;12.70;70.40
31677;DHT22;18385;51.572;6.578;2023-11-21T02:20:12;12.70;70.40
31677;DHT22;18385;51.572;6.578;2023-11-21T02:22:43;12.70;70.40
31677;DHT22;18385;51.572;6.578;2023-11-21T02:25:09;12.80;70.40
31677;DHT22;18385;51.572;6.578;2023-11-21T02:27:35;12.80;70.20
31677;DHT22;18385;51.572;6.578;2023-11-21T02:30:01;12.80;70.10
31677;DHT22;18385;51.572;6.578;2023-11-21T02:32:29;12.80;70.00
31677;DHT22;18385;51.572;6.578;2023-11-21T02:34:57;12.80;70.00
31677;DHT22;18385;51.572;6.578;2023-11-21T02:37:26;12.70;70.10
31677;DHT22;18385;51.572;6.578;2023-11-21T02:39:52;12.70;70.30
31677;DHT22;18385;51.572;6.578;2023-11-21T02:42:18;12.70;70.40
31677;DHT22;18385;51.572;6.578;2023-11-21T02:44:44;12.70;70.40
31677;DHT22;18385;51.572;6.578;2023-11-21T02:47:10;12.80;70.30
31677;DHT22;18385;51.572;6.578;2023-11-21T02:49:35;12.80;70.30
31677;DHT22;18385;51.572;6.578;2023-11-21T02:52:01;12.80;70.30
31677;DHT22;18385;51.572;6.578;2023-11-21T02:54:27;12.80;70.40
31677;DHT22;18385;51.572;6.578;2023-11-21T02:56:53;12.80;70.30
31677;DHT22;18385;51.572;6.578;2023-11-21T02:59:18;12.80;70.30
31677;DHT22;18385;51.572;6.578;2023-11-21T03:01:45;12.80;70.40
31677;DHT22;18385;51.572;6.578;2023-11-21T03:04:12;12.90;70.40
31677;DHT22;18385;51.572;6.578;2023-11-21T03:06:45;12.80;70.30
31677;DHT22;18385;51.572;6.578;2023-11-21T03:09:11;12.80;70.40
31677;DHT22;18385;51.572;6.578;2023-11-21T03:11:39;12.80;70.50
31677;DHT22;18385;51.572;6.578;2023-11-21T03:14:05;12.80;70.40
31677;DHT22;18385;51.572;6.578;2023-11-21T03:16:32;12.70;70.30
31677;DHT22;18385;51.572;6.578;2023-11-21T03:18:58;12.70;70.30
31677;DHT22;18385;51.572;6.578;2023-11-21T03:21:24;12.70;70.40
31677;DHT22;18385;51.572;6.578;2023-11-21T03:23:50;12.70;70.40
31677;DHT22;18385;51.572;6.578;2023-11-21T03:26:17;12.70;70.60
31677;DHT22;18385;51.572;6.578;2023-11-21T03:28:42;12.60;70.50
31677;DHT22;18385;51.572;6.578;2023-11-21T03:31:08;12.60;70.50
31677;DHT22;18385;51.572;6.578;2023-11-21T03:33:35;12.50;70.50
31677;DHT22;18385;51.572;6.578;2023-11-21T03:36:01;12.40;70.50
31677;DHT22;18385;51.572;6.578;2023-11-21T03:38:26;12.40;70.70
31677;DHT22;18385;51.572;6.578;2023-11-21T03:40:52;12.40;70.80
31677;DHT22;18385;51.572;6.578;2023-11-21T03:43:18;12.40;70.90
31677;DHT22;18385;51.572;6.578;2023-11-21T03:45:44;12.40;70.90
31677;DHT22;18385;51.572;6.578;2023-11-21T03:48:12;12.40;71.00
31677;DHT22;18385;51.572;6.578;2023-11-21T03:50:38;12.40;71.00
31677;DHT22;18385;51.572;6.578;2023-11-21T03:53:05;12.40;71.10
31677;DHT22;18385;51.572;6.578;2023-11-21T03:55:31;12.40;71.50
31677;DHT22;18385;51.572;6.578;2023-11-21T03:57:58;12.40;71.10
31677;DHT22;18385;51.572;6.578;2023-11-21T04:00:24;12.50;71.10
31677;DHT22;18385;51.572;6.578;2023-11-21T04:02:52;12.50;71.10
31677;DHT22;18385;51.572;6.578;2023-11-21T04:05:19;12.40;71.10
31677;DHT22;18385;51.572;6.578;2023-11-21T04:07:45;12.40;71.10
31677;DHT22;18385;51.572;6.578;2023-11-21T04:10:10;12.40;71.30
31677;DHT22;18385;51.572;6.578;2023-11-21T04:12:38;12.50;71.30
31677;DHT22;18385;51.572;6.578;2023-11-21T04:15:04;12.50;71.50
31677;DHT22;18385;51.572;6.578;2023-11-21T04:17:30;12.50;71.20
31677;DHT22;18385;51.572;6.578;2023-11-21T04:19:56;12.50;71.40
31677;DHT22;18385;51.572;6.578;2023-11-21T04:22:22;12.60;71.30
31677;DHT22;18385;51.572;6.578;2023-11-21T04:24:48;12.60;71.20
31677;DHT22;18385;51.572;6.578;2023-11-21T04:27:14;12.60;71.30
31677;DHT22;18385;51.572;6.578;2023-11-21T04:29:40;12.60;71.20
31677;DHT22;18385;51.572;6.578;2023-11-21T04:32:07;12.60;71.30
31677;DHT22;18385;51.572;6.578;2023-11-21T04:34:33;12.60;71.30
31677;DHT22;18385;51.572;6.578;2023-11-21T04:37:00;12.60;71.30
31677;DHT22;18385;51.572;6.578;2023-11-21T04:39:26;12.70;71.20
31677;DHT22;18385;51.572;6.578;2023-11-21T04:41:51;12.70;71.10
31677;DHT22;18385;51.572;6.578;2023-11-21T04:44:17;12.70;71.10
31677;DHT22;18385;51.572;6.578;2023-11-21T04:46:43;12.70;71.10
31677;DHT22;18385;51.572;6.578;2023-11-21T04:49:08;12.70;71.10
31677;DHT22;18385;51.572;6.578;2023-11-21T04:51:36;12.80;71.10
31677;DHT22;18385;51.572;6.578;2023-11-21T04:54:02;12.80;71.10
31677;DHT22;18385;51.572;6.578;2023-11-21T04:56:28;12.70;71.10
31677;DHT22;18385;51.572;6.578;2023-11-21T04:58:54;12.70;71.00
31677;DHT22;18385;51.572;6.578;2023-11-21T05:01:20;12.70;71.00
31677;DHT22;18385;51.572;6.578;2023-11-21T05:03:46;12.70;71.20
31677;DHT22;18385;51.572;6.578;2023-11-21T05:06:12;12.70;71.20
31677;DHT22;18385;51.572;6.578;2023-11-21T05:08:39;12.70;71.20
31677;DHT22;18385;51.572;6.578;2023-11-21T05:11:05;12.70;71.20
31677;DHT22;18385;51.572;6.578;2023-11-21T05:13:34;12.70;71.10
31677;DHT22;18385;51.572;6.578;2023-11-21T05:16:00;12.70;71.10
31677;DHT22;18385;51.572;6.578;2023-11-21T05:18:25;12.70;71.00
31677;DHT22;18385;51.572;6.578;2023-11-21T05:20:55;12.70;71.20
31677;DHT22;18385;51.572;6.578;2023-11-21T05:23:21;12.60;71.20
31677;DHT22;18385;51.572;6.578;2023-11-21T05:25:47;12.60;71.30
31677;DHT22;18385;51.572;6.578;2023-11-21T05:28:13;12.70;71.30
31677;DHT22;18385;51.572;6.578;2023-11-21T05:30:38;12.70;71.10
31677;DHT22;18385;51.572;6.578;2023-11-21T05:33:05;12.70;71.00
31677;DHT22;18385;51.572;6.578;2023-11-21T05:35:31;12.60;71.00
31677;DHT22;18385;51.572;6.578;2023-11-21T05:37:56;12.50;70.90
31677;DHT22;18385;51.572;6.578;2023-11-21T05:40:22;12.50;71.10
31677;DHT22;18385;51.572;6.578;2023-11-21T05:42:48;12.40;71.30
31677;DHT22;18385;51.572;6.578;2023-11-21T05:45:14;12.40;71.40
31677;DHT22;18385;51.572;6.578;2023-11-21T05:47:45;12.30;71.40
31677;DHT22;18385;51.572;6.578;2023-11-21T05:50:15;12.30;71.60
31677;DHT22;18385;51.572;6.578;2023-11-21T05:52:42;12.30;71.60
31677;DHT22;18385;51.572;6.578;2023-11-21T05:55:09;12.30;71.60
31677;DHT22;18385;51.572;6.578;2023-11-21T05:57:35;12.30;71.70
31677;DHT22;18385;51.572;6.578;2023-11-21T06:02:37;12.30;71.60
31677;DHT22;18385;51.572;6.578;2023-11-21T06:05:03;12.40;71.70
31677;DHT22;18385;51.572;6.578;2023-11-21T06:07:29;12.40;71.80
31677;DHT22;18385;51.572;6.578;2023-11-21T06:09:55;12.50;71.80
31677;DHT22;18385;51.572;6.578;2023-11-21T06:12:21;12.50;71.70
31677;DHT22;18385;51.572;6.578;2023-11-21T06:14:46;12.60;71.80
31677;DHT22;18385;51.572;6.578;2023-11-21T06:17:13;12.60;71.60
31677;DHT22;18385;51.572;6.578;2023-11-21T06:19:39;12.60;71.50
31677;DHT22;18385;51.572;6.578;2023-11-21T06:22:05;12.60;71.40
31677;DHT22;18385;51.572;6.578;2023-11-21T06:24:31;12.60;71.50
31677;DHT22;18385;51.572;6.578;2023-11-21T06:26:57;12.70;71.60
31677;DHT22;18385;51.572;6.578;2023-11-21T06:29:23;12.70;71.50
31677;DHT22;18385;51.572;6.578;2023-11-21T06:31:49;12.70;72.20
31677;DHT22;18385;51.572;6.578;2023-11-21T06:34:14;12.70;71.50
31677;DHT22;18385;51.572;6.578;2023-11-21T06:36:40;12.80;71.60
31677;DHT22;18385;51.572;6.578;2023-11-21T06:39:06;12.80;71.50
31677;DHT22;18385;51.572;6.578;2023-11-21T06:41:34;12.90;71.50
31677;DHT22;18385;51.572;6.578;2023-11-21T06:44:00;12.80;71.40
31677;DHT22;18385;51.572;6.578;2023-11-21T06:46:25;12.90;71.50
31677;DHT22;18385;51.572;6.578;2023-11-21T06:48:51;12.90;71.50
31677;DHT22;18385;51.572;6.578;2023-11-21T06:51:17;12.90;71.50
31677;DHT22;18385;51.572;6.578;2023-11-21T06:53:43;12.90;71.30
31677;DHT22;18385;51.572;6.578;2023-11-21T06:56:19;12.90;71.30
31677;DHT22;18385;51.572;6.578;2023-11-21T06:58:45;12.90;71.30
31677;DHT22;18385;51.572;6.578;2023-11-21T07:01:12;12.90;71.30
31677;DHT22;18385;51.572;6.578;2023-11-21T07:03:39;12.90;71.30
31677;DHT22;18385;51.572;6.578;2023-11-21T07:06:05;13.00;71.40
31677;DHT22;18385;51.572;6.578;2023-11-21T07:08:31;13.00;71.40
31677;DHT22;18385;51.572;6.578;2023-11-21T07:10:56;13.00;71.40
31677;DHT22;18385;51.572;6.578;2023-11-21T07:13:22;12.90;71.40
31677;DHT22;18385;51.572;6.578;2023-11-21T07:15:49;12.90;71.40
31677;DHT22;18385;51.572;6.578;2023-11-21T07:18:15;13.00;71.50
31677;DHT22;18385;51.572;6.578;2023-11-21T07:20:40;13.00;71.40
31677;DHT22;18385;51.572;6.578;2023-11-21T07:23:06;13.00;71.30
31677;DHT22;18385;51.572;6.578;2023-11-21T07:25:32;13.00;71.30
31677;DHT22;18385;51.572;6.578;2023-11-21T07:27:59;13.00;71.30
31677;DHT22;18385;51.572;6.578;2023-11-21T07:30:26;13.00;71.30
31677;DHT22;18385;51.572;6.578;2023-11-21T07:32:51;13.00;71.40
31677;DHT22;18385;51.572;6.578;2023-11-21T07:35:17;12.90;71.40
31677;DHT22;18385;51.572;6.578;2023-11-21T07:37:43;13.00;71.60
31677;DHT22;18385;51.572;6.578;2023-11-21T07:40:09;13.00;71.60
31677;DHT22;18385;51.572;6.578;2023-11-21T07:42:37;13.00;71.40
31677;DHT22;18385;51.572;6.578;2023-11-21T07:45:05;13.00;71.50
31677;DHT22;18385;51.572;6.578;2023-11-21T07:47:32;13.00;71.60
31677;DHT22;18385;51.572;6.578;2023-11-21T07:50:02;13.00;71.40
31677;DHT22;18385;51.572;6.578;2023-11-21T07:52:28;13.00;71.40
31677;DHT22;18385;51.572;6.578;2023-11-21T07:54:54;13.00;71.50
31677;DHT22;18385;51.572;6.578;2023-11-21T07:57:19;12.90;71.50
31677;DHT22;18385;51.572;6.578;2023-11-21T07:59:45;12.90;72.30
31677;DHT22;18385;51.572;6.578;2023-11-21T08:02:11;12.90;71.50
31677;DHT22;18385;51.572;6.578;2023-11-21T08:04:36;12.90;71.70
31677;DHT22;18385;51.572;6.578;2023-11-21T08:07:02;12.90;71.70
31677;DHT22;18385;51.572;6.578;2023-11-21T08:09:29;12.90;71.80
31677;DHT22;18385;51.572;6.578;2023-11-21T08:11:55;12.90;71.80
31677;DHT22;18385;51.572;6.578;2023-11-21T08:14:22;12.90;71.70
31677;DHT22;18385;51.572;6.578;2023-11-21T08:16:50;12.80;71.80
31677;DHT22;18385;51.572;6.578;2023-11-21T08:19:16;12.90;72.00
31677;DHT22;18385;51.572;6.578;2023-11-21T08:21:43;12.90;72.00
31677;DHT22;18385;51.572;6.578;2023-11-21T08:24:10;13.00;72.00
31677;DHT22;18385;51.572;6.578;2023-11-21T08:26:37;13.00;71.70
31677;DHT22;18385;51.572;6.578;2023-11-21T08:29:03;13.00;71.70
31677;DHT22;18385;51.572;6.578;2023-11-21T08:31:29;13.00;71.80
31677;DHT22;18385;51.572;6.578;2023-11-21T08:33:55;13.00;71.80
31677;DHT22;18385;51.572;6.578;2023-11-21T08:36:24;13.00;71.80
31677;DHT22;18385;51.572;6.578;2023-11-21T08:38:50;13.10;71.90
31677;DHT22;18385;51.572;6.578;2023-11-21T08:41:18;13.20;71.90
31677;DHT22;18385;51.572;6.578;2023-11-21T08:43:48;13.20;71.70
31677;DHT22;18385;51.572;6.578;2023-11-21T08:46:14;13.30;71.60
31677;DHT22;18385;51.572;6.578;2023-11-21T08:48:41;13.30;71.50
31677;DHT22;18385;51.572;6.578;2023-11-21T08:51:09;13.40;71.60
31677;DHT22;18385;51.572;6.578;2023-11-21T08:53:35;13.50;71.50
31677;DHT22;18385;51.572;6.578;2023-11-21T08:56:01;13.60;71.40
31677;DHT22;18385;51.572;6.578;2023-11-21T08:58:27;13.60;71.30
31677;DHT22;18385;51.572;6.578;2023-11-21T09:00:53;13.70;71.30
31677;DHT22;18385;51.572;6.578;2023-11-21T09:03:18;13.70;71.20
31677;DHT22;18385;51.572;6.578;2023-11-21T09:05:44;13.80;71.30
31677;DHT22;18385;51.572;6.578;2023-11-21T09:08:10;13.90;71.20
31677;DHT22;18385;51.572;6.578;2023-11-21T09:10:35;13.90;71.10
31677;DHT22;18385;51.572;6.578;2023-11-21T09:13:02;14.00;71.10
31677;DHT22;18385;51.572;6.578;2023-11-21T09:15:28;14.10;71.10
31677;DHT22;18385;51.572;6.578;2023-11-21T09:17:54;14.10;71.10
31677;DHT22;18385;51.572;6.578;2023-11-21T09:20:19;14.10;71.00
31677;DHT22;18385;51.572;6.578;2023-11-21T09:22:48;14.10;71.10
31677;DHT22;18385;51.572;6.578;2023-11-21T09:25:14;14.20;71.10
31677;DHT22;18385;51.572;6.578;2023-11-21T09:27:40;14.20;71.00
31677;DHT22;18385;51.572;6.578;2023-11-21T09:30:07;14.30;70.90
31677;DHT22;18385;51.572;6.578;2023-11-21T09:32:37;14.30;70.90
31677;DHT22;18385;51.572;6.578;2023-11-21T09:35:06;14.40;70.80
31677;DHT22;18385;51.572;6.578;2023-11-21T09:37:35;14.50;70.80
31677;DHT22;18385;51.572;6.578;2023-11-21T09:40:04;14.60;70.60
31677;DHT22;18385;51.572;6.578;2023-11-21T09:42:36;14.70;70.50
31677;DHT22;18385;51.572;6.578;2023-11-21T09:45:28;14.70;70.20
31677;DHT22;18385;51.572;6.578;2023-11-21T09:47:55;14.60;70.10
31677;DHT22;18385;51.572;6.578;2023-11-21T09:50:24;14.60;70.10
31677;DHT22;18385;51.572;6.578;2023-11-21T09:53:03;14.50;70.10
31677;DHT22;18385;51.572;6.578;2023-11-21T09:55:34;14.50;70.40
31677;DHT22;18385;51.572;6.578;2023-11-21T09:58:04;14.50;70.60
31677;DHT22;18385;51.572;6.578;2023-11-21T10:00:33;14.60;70.40
31677;DHT22;18385;51.572;6.578;2023-11-21T10:02:59;14.70;70.40
31677;DHT22;18385;51.572;6.578;2023-11-21T10:05:25;14.70;70.30
31677;DHT22;18385;51.572;6.578;2023-11-21T10:07:51;14.80;70.30
31677;DHT22;18385;51.572;6.578;2023-11-21T10:10:19;15.00;70.30
31677;DHT22;18385;51.572;6.578;2023-11-21T10:12:49;15.00;70.10
31677;DHT22;18385;51.572;6.578;2023-11-21T10:15:21;15.10;70.00
31677;DHT22;18385;51.572;6.578;2023-11-21T10:17:49;15.20;70.00
31677;DHT22;18385;51.572;6.578;2023-11-21T10:20:16;15.30;69.80
31677;DHT22;18385;51.572;6.578;2023-11-21T10:22:42;15.40;69.60
31677;DHT22;18385;51.572;6.578;2023-11-21T10:25:09;15.50;69.60
31677;DHT22;18385;51.572;6.578;2023-11-21T10:27:37;15.50;69.50
31677;DHT22;18385;51.572;6.578;2023-11-21T10:30:05;15.50;69.50
31677;DHT22;18385;51.572;6.578;2023-11-21T10:32:31;15.50;69.20
31677;DHT22;18385;51.572;6.578;2023-11-21T10:34:59;15.40;69.30
31677;DHT22;18385;51.572;6.578;2023-11-21T10:37:26;15.50;69.60
31677;DHT22;18385;51.572;6.578;2023-11-21T10:40:02;15.50;69.50
31677;DHT22;18385;51.572;6.578;2023-11-21T10:42:32;15.60;69.50
31677;DHT22;18385;51.572;6.578;2023-11-21T10:44:58;15.60;69.30
31677;DHT22;18385;51.572;6.578;2023-11-21T10:47:23;15.60;69.20
31677;DHT22;18385;51.572;6.578;2023-11-21T10:49:49;15.50;69.00
31677;DHT22;18385;51.572;6.578;2023-11-21T10:52:15;15.50;69.30
31677;DHT22;18385;51.572;6.578;2023-11-21T10:54:43;15.40;69.10
31677;DHT22;18385;51.572;6.578;2023-11-21T10:57:10;15.30;69.00
31677;DHT22;18385;51.572;6.578;2023-11-21T10:59:36;15.10;69.20
31677;DHT22;18385;51.572;6.578;2023-11-21T11:02:23;15.10;69.50
31677;DHT22;18385;51.572;6.578;2023-11-21T11:04:54;15.10;69.80
31677;DHT22;18385;51.572;6.578;2023-11-21T11:07:24;15.30;70.40
31677;DHT22;18385;51.572;6.578;2023-11-21T11:09:51;15.60;70.20
31677;DHT22;18385;51.572;6.578;2023-11-21T11:12:17;15.90;69.70
31677;DHT22;18385;51.572;6.578;2023-11-21T11:14:44;16.00;69.20
31677;DHT22;18385;51.572;6.578;2023-11-21T11:17:10;16.00;68.70
31677;DHT22;18385;51.572;6.578;2023-11-21T11:19:36;16.00;68.60
31677;DHT22;18385;51.572;6.578;2023-11-21T11:32:52;15.60;69.10
31677;DHT22;18385;51.572;6.578;2023-11-21T11:35:38;15.70;69.20
31677;DHT22;18385;51.572;6.578;2023-11-21T11:38:07;15.70;68.80
31677;DHT22;18385;51.572;6.578;2023-11-21T11:40:46;15.60;68.90
31677;DHT22;18385;51.572;6.578;2023-11-21T11:43:12;15.60;69.00
31677;DHT22;18385;51.572;6.578;2023-11-21T11:45:38;15.60;69.10
31677;DHT22;18385;51.572;6.578;2023-11-21T11:48:07;15.70;69.10
31677;DHT22;18385;51.572;6.578;2023-11-21T11:50:33;15.70;69.00
31677;DHT22;18385;51.572;6.578;2023-11-21T11:53:15;15.80;69.10
31677;DHT22;18385;51.572;6.578;2023-11-21T11:55:41;15.80;68.90
31677;DHT22;18385;51.572;6.578;2023-11-21T11:58:08;15.90;69.10
31677;DHT22;18385;51.572;6.578;2023-11-21T12:00:34;15.90;68.90
31677;DHT22;18385;51.572;6.578;2023-11-21T12:03:04;16.00;68.90
31677;DHT22;18385;51.572;6.578;2023-11-21T12:05:34;16.00;68.70
31677;DHT22;18385;51.572;6.578;2023-11-21T12:08:08;16.00;68.60
31677;DHT22;18385;51.572;6.578;2023-11-21T12:10:35;16.00;68.70
31677;DHT22;18385;51.572;6.578;2023-11-21T12:13:08;16.00;68.50
31677;DHT22;18385;51.572;6.578;2023-11-21T12:15:36;16.00;68.50
31677;DHT22;18385;51.572;6.578;2023-11-21T12:18:02;16.00;68.50
31677;DHT22;18385;51.572;6.578;2023-11-21T12:20:30;16.00;68.50
31677;DHT22;18385;51.572;6.578;2023-11-21T12:22:59;15.90;68.40
31677;DHT22;18385;51.572;6.578;2023-11-21T12:25:26;15.80;68.30
31677;DHT22;18385;51.572;6.578;2023-11-21T12:27:58;15.70;68.40
31677;DHT22;18385;51.572;6.578;2023-11-21T12:30:32;15.60;68.50
31677;DHT22;18385;51.572;6.578;2023-11-21T12:32:59;15.50;68.50
31677;DHT22;18385;51.572;6.578;2023-11-21T12:35:27;15.30;68.30
31677;DHT22;18385;51.572;6.578;2023-11-21T12:37:55;15.10;68.50
31677;DHT22;18385;51.572;6.578;2023-11-21T12:40:23;15.00;68.80
31677;DHT22;18385;51.572;6.578;2023-11-21T12:42:52;15.10;69.10
31677;DHT22;18385;51.572;6.578;2023-11-21T12:45:22;15.10;69.20
31677;DHT22;18385;51.572;6.578;2023-11-21T12:47:48;15.10;69.00
31677;DHT22;18385;51.572;6.578;2023-11-21T12:50:20;15.00;68.80
31677;DHT22;18385;51.572;6.578;2023-11-21T12:52:52;14.90;68.90
31677;DHT22;18385;51.572;6.578;2023-11-21T12:55:22;14.80;69.10
31677;DHT22;18385;51.572;6.578;2023-11-21T12:57:49;14.70;69.30
31677;DHT22;18385;51.572;6.578;2023-11-21T13:00:18;14.60;69.30
31677;DHT22;18385;51.572;6.578;2023-11-21T13:02:54;14.50;69.60
31677;DHT22;18385;51.572;6.578;2023-11-21T13:05:33;14.40;69.80
31677;DHT22;18385;51.572;6.578;2023-11-21T13:08:01;14.40;70.00
31677;DHT22;18385;51.572;6.578;2023-11-21T13:10:34;14.40;70.00
31677;DHT22;18385;51.572;6.578;2023-11-21T13:13:03;14.40;70.00
31677;DHT22;18385;51.572;6.578;2023-11-21T13:15:40;14.40;70.00
31677;DHT22;18385;51.572;6.578;2023-11-21T13:18:08;14.50;70.30
31677;DHT22;18385;51.572;6.578;2023-11-21T13:20:36;14.50;70.20
31677;DHT22;18385;51.572;6.578;2023-11-21T13:23:07;14.60;70.30
31677;DHT22;18385;51.572;6.578;2023-11-21T13:25:34;14.70;70.20
31677;DHT22;18385;51.572;6.578;2023-11-21T13:28:00;14.70;70.00
31677;DHT22;18385;51.572;6.578;2023-11-21T13:30:28;14.80;70.00
31677;DHT22;18385;51.572;6.578;2023-11-21T13:33:00;14.90;70.00
31677;DHT22;18385;51.572;6.578;2023-11-21T13:35:32;15.00;69.90
31677;DHT22;18385;51.572;6.578;2023-11-21T13:38:11;14.90;69.80
31677;DHT22;18385;51.572;6.578;2023-11-21T13:40:41;14.90;69.70
31677;DHT22;18385;51.572;6.578;2023-11-21T13:43:13;14.80;69.70
31677;DHT22;18385;51.572;6.578;2023-11-21T13:45:43;14.70;69.80
31677;DHT22;18385;51.572;6.578;2023-11-21T13:48:10;14.60;69.90
31677;DHT22;18385;51.572;6.578;2023-11-21T13:50:45;14.50;70.10
31677;DHT22;18385;51.572;6.578;2023-11-21T13:53:23;14.40;70.20
31677;DHT22;18385;51.572;6.578;2023-11-21T13:55:54;14.40;70.40
31677;DHT22;18385;51.572;6.578;2023-11-21T13:58:20;14.40;70.50
31677;DHT22;18385;51.572;6.578;2023-11-21T14:01:00;14.40;70.40
31677;DHT22;18385;51.572;6.578;2023-11-21T14:03:31;14.30;70.50
31677;DHT22;18385;51.572;6.578;2023-11-21T14:06:17;14.30;70.70
31677;DHT22;18385;51.572;6.578;2023-11-21T14:08:50;14.30;70.70
31677;DHT22;18385;51.572;6.578;2023-11-21T14:11:16;14.40;70.70
31677;DHT22;18385;51.572;6.578;2023-11-21T14:13:44;14.40;70.50
31677;DHT22;18385;51.572;6.578;2023-11-21T14:16:13;14.40;70.60
31677;DHT22;18385;51.572;6.578;2023-11-21T14:18:39;14.40;70.60
31677;DHT22;18385;51.572;6.578;2023-11-21T14:21:18;14.40;70.50
31677;DHT22;18385;51.572;6.578;2023-11-21T14:23:44;14.40;70.60
31677;DHT22;18385;51.572;6.578;2023-11-21T14:26:11;14.40;70.60
31677;DHT22;18385;51.572;6.578;2023-11-21T14:28:39;14.40;70.70
31677;DHT22;18385;51.572;6.578;2023-11-21T14:31:05;14.30;70.50
31677;DHT22;18385;51.572;6.578;2023-11-21T14:33:31;14.30;70.60
31677;DHT22;18385;51.572;6.578;2023-11-21T14:35:56;14.20;70.60
31677;DHT22;18385;51.572;6.578;2023-11-21T14:38:23;14.30;70.90
31677;DHT22;18385;51.572;6.578;2023-11-21T14:40:48;14.20;70.90
31677;DHT22;18385;51.572;6.578;2023-11-21T14:43:15;14.30;70.90
31677;DHT22;18385;51.572;6.578;2023-11-21T14:45:41;14.30;70.80
31677;DHT22;18385;51.572;6.578;2023-11-21T14:48:07;14.20;70.80
31677;DHT22;18385;51.572;6.578;2023-11-21T14:50:42;14.20;70.80
31677;DHT22;18385;51.572;6.578;2023-11-21T14:53:11;14.20;71.00
31677;DHT22;18385;51.572;6.578;2023-11-21T14:55:39;14.20;70.80
31677;DHT22;18385;51.572;6.578;2023-11-21T14:58:05;14.20;70.90
31677;DHT22;18385;51.572;6.578;2023-11-21T15:00:31;14.10;70.80
31677;DHT22;18385;51.572;6.578;2023-11-21T15:03:04;14.10;71.00
31677;DHT22;18385;51.572;6.578;2023-11-21T15:05:30;14.10;70.90
31677;DHT22;18385;51.572;6.578;2023-11-21T15:07:56;14.20;71.00
31677;DHT22;18385;51.572;6.578;2023-11-21T15:10:34;14.20;70.90
31677;DHT22;18385;51.572;6.578;2023-11-21T15:13:13;14.20;71.00
31677;DHT22;18385;51.572;6.578;2023-11-21T15:15:41;14.20;70.90
31677;DHT22;18385;51.572;6.578;2023-11-21T15:18:07;14.20;70.80
31677;DHT22;18385;51.572;6.578;2023-11-21T15:20:33;14.10;70.70
31677;DHT22;18385;51.572;6.578;2023-11-21T15:22:59;14.10;70.70
31677;DHT22;18385;51.572;6.578;2023-11-21T15:25:25;14.10;70.80
31677;DHT22;18385;51.572;6.578;2023-11-21T15:27:51;14.10;70.80
31677;DHT22;18385;51.572;6.578;2023-11-21T15:30:16;14.10;70.80
31677;DHT22;18385;51.572;6.578;2023-11-21T15:32:50;14.00;70.70
31677;DHT22;18385;51.572;6.578;2023-11-21T15:35:16;14.00;71.50
31677;DHT22;18385;51.572;6.578;2023-11-21T15:37:41;14.00;70.80
31677;DHT22;18385;51.572;6.578;2023-11-21T15:40:09;13.90;70.80
31677;DHT22;18385;51.572;6.578;2023-11-21T15:42:35;13.90;71.60
31677;DHT22;18385;51.572;6.578;2023-11-21T15:45:03;13.90;70.90